Lindrith, New Mexico
Current Conditions -  °F | °C
As of 8:35 AM on Saturday 25 Oct 2014 (Local Time) from KLAM Reporting Station
Clear Clear  
Wind Chill: 54°   Ceiling: Unl
Heat Index: 54°   Visibility: 10mi
Dew Point: 20°   Wind: 3mph
Humidity: 27%   Direction: 20°NNE
Pressure: 30.4"   Gusts: NA
Location:  36.3°N, 107.04°W
Report Text: KLAM 251435Z AUTO 02003KT 10SM CLR 12/M07 A3040 RMK AO2 T01201067
Loading
Personal Weather Stations






























Interactive Weather Map
Tropical Storm Tracking
New forecast layout! Learn more

10-Day Weather Forecast

Advertisements
Track Severe Weather on mobile